createdAt,value
2019-04-01T00:00:35.731Z,94871.11
2019-04-01T00:03:08.026Z,94871.48
2019-04-01T00:05:39.588Z,94866.52
2019-04-01T00:08:10.503Z,94864.59
2019-04-01T00:10:41.949Z,94872.37
2019-04-01T00:13:14.542Z,94866.62
2019-04-01T00:15:45.471Z,94862.67
2019-04-01T00:18:16.436Z,94858.63
2019-04-01T00:20:47.796Z,94858.36
2019-04-01T00:23:18.969Z,94858.16
2019-04-01T00:25:49.916Z,94860.02
2019-04-01T00:28:20.798Z,94861.73
2019-04-01T00:30:52.105Z,94855.58
2019-04-01T00:33:23.477Z,94849.80
2019-04-01T00:35:54.464Z,94851.19
2019-04-01T00:38:25.878Z,94847.12
2019-04-01T00:40:56.877Z,94855.63
2019-04-01T00:44:01.947Z,94848.59
2019-04-01T00:46:33.861Z,94853.65
2019-04-01T00:49:05.009Z,94848.75
2019-04-01T00:51:36.076Z,94854.09
2019-04-01T00:54:06.788Z,94846.33
2019-04-01T00:56:37.993Z,94844.91
2019-04-01T00:59:09.273Z,94855.92
2019-04-01T01:01:40.298Z,94842.98
2019-04-01T01:04:11.713Z,94850.95
2019-04-01T01:06:42.873Z,94848.75
2019-04-01T01:09:14.150Z,94849.88
2019-04-01T01:11:45.411Z,94847.80
2019-04-01T01:14:16.277Z,94848.23
2019-04-01T01:16:47.167Z,94854.22
2019-04-01T01:19:18.588Z,94850.28
2019-04-01T01:21:49.904Z,94844.75
2019-04-01T01:24:21.312Z,94841.02
2019-04-01T01:26:52.307Z,94847.17
2019-04-01T01:29:23.352Z,94844.06
2019-04-01T01:31:54.590Z,94842.64
2019-04-01T01:34:25.465Z,94843.44
2019-04-01T01:36:56.743Z,94847.25
2019-04-01T01:39:27.828Z,94843.01
2019-04-01T01:41:59.077Z,94850.55
2019-04-01T01:44:30.489Z,94843.92
2019-04-01T01:47:01.631Z,94849.58
2019-04-01T01:49:32.463Z,94848.72
2019-04-01T01:52:03.493Z,94850.45
2019-04-01T01:54:34.873Z,94847.42
2019-04-01T01:57:06.126Z,94858.02
2019-04-01T01:59:37.355Z,94851.75
2019-04-01T02:02:08.733Z,94855.59
2019-04-01T02:04:39.986Z,94852.45
2019-04-01T02:07:10.993Z,94856.83
2019-04-01T02:09:42.012Z,94852.80
2019-04-01T02:12:13.288Z,94852.27
2019-04-01T02:14:44.555Z,94851.26
2019-04-01T02:17:15.639Z,94855.78
2019-04-01T02:19:46.276Z,94853.67
2019-04-01T02:22:17.301Z,94861.95
2019-04-01T02:24:48.334Z,94858.61
2019-04-01T02:27:19.659Z,94860.36
2019-04-01T02:29:50.848Z,94858.42
2019-04-01T02:32:22.103Z,94866.99
2019-04-01T02:34:53.419Z,94862.47
2019-04-01T02:37:24.480Z,94862.53
2019-04-01T02:39:55.382Z,94868.09
2019-04-01T02:42:26.784Z,94868.29
2019-04-01T02:44:57.807Z,94867.56
2019-04-01T02:47:29.416Z,94868.26
2019-04-01T02:50:01.929Z,94869.26
2019-04-01T02:52:33.054Z,94868.59
2019-04-01T02:55:06.552Z,94866.96
2019-04-01T02:57:37.024Z,94870.34
2019-04-01T03:00:08.487Z,94873.33
2019-04-01T03:02:39.522Z,94878.56
2019-04-01T03:05:10.669Z,94877.38
2019-04-01T03:07:41.929Z,94880.11
2019-04-01T03:10:13.078Z,94886.25
2019-04-01T03:12:45.457Z,94884.61
2019-04-01T03:15:16.362Z,94887.11
2019-04-01T03:17:47.165Z,94882.39
2019-04-01T03:20:18.525Z,94893.59
2019-04-01T03:22:49.813Z,94891.05
2019-04-01T03:25:21.080Z,94891.48
2019-04-01T03:27:53.211Z,94889.38
2019-04-01T03:30:24.661Z,94892.25
2019-04-01T03:32:55.851Z,94889.30
2019-04-01T03:35:26.485Z,94885.98
2019-04-01T03:37:57.561Z,94880.36
2019-04-01T03:40:28.558Z,94883.41
2019-04-01T03:42:59.573Z,94887.17
2019-04-01T03:45:30.666Z,94891.80
2019-04-01T03:48:02.085Z,94889.98
2019-04-01T03:50:33.191Z,94894.84
2019-04-01T03:53:03.994Z,94892.10
2019-04-01T03:55:35.497Z,94888.78
2019-04-01T03:58:06.820Z,94888.70
2019-04-01T04:00:38.457Z,94889.91
2019-04-01T04:03:09.761Z,94893.53
2019-04-01T04:05:41.006Z,94900.67
2019-04-01T04:08:11.781Z,94901.28
2019-04-01T04:10:42.816Z,94896.04
2019-04-01T04:13:14.230Z,94899.89
2019-04-01T04:15:45.287Z,94898.99
2019-04-01T04:18:17.564Z,94899.38
2019-04-01T04:20:48.622Z,94903.53
2019-04-01T04:23:19.598Z,94899.71
2019-04-01T04:25:51.415Z,94902.83
2019-04-01T04:28:22.481Z,94906.38
2019-04-01T04:30:53.508Z,94904.34
2019-04-01T04:33:24.404Z,94909.59
2019-04-01T04:35:55.544Z,94910.29
2019-04-01T04:38:26.544Z,94912.30
2019-04-01T04:40:57.625Z,94906.27
2019-04-01T04:43:29.129Z,94902.53
2019-04-01T04:46:00.359Z,94904.66
2019-04-01T04:48:31.426Z,94910.41
2019-04-01T04:51:02.381Z,94908.79
2019-04-01T04:53:33.509Z,94907.19
2019-04-01T04:56:04.683Z,94913.83
2019-04-01T04:58:35.568Z,94912.94
2019-04-01T05:01:06.492Z,94912.62
2019-04-01T05:03:37.701Z,94909.88
2019-04-01T05:06:09.064Z,94915.02
2019-04-01T05:08:40.276Z,94915.69
2019-04-01T05:11:11.018Z,94920.67
2019-04-01T05:13:42.141Z,94927.16
2019-04-01T05:16:13.399Z,94931.11
2019-04-01T05:18:44.596Z,94929.70
2019-04-01T05:21:16.400Z,94931.03
2019-04-01T05:23:48.247Z,94921.78
2019-04-01T05:26:20.357Z,94925.89
2019-04-01T05:28:52.345Z,94923.03
2019-04-01T05:31:23.819Z,94923.16
2019-04-01T05:33:56.053Z,94920.34
2019-04-01T05:36:27.619Z,94926.16
2019-04-01T05:38:58.780Z,94917.72
2019-04-01T05:41:29.879Z,94918.73
2019-04-01T05:44:02.463Z,94911.80
2019-04-01T05:46:33.701Z,94908.76
2019-04-01T05:49:05.612Z,94911.21
2019-04-01T05:51:37.139Z,94915.16
2019-04-01T05:54:08.642Z,94921.20
2019-04-01T05:56:39.690Z,94918.53
2019-04-01T05:59:10.780Z,94914.16
2019-04-01T06:01:44.199Z,94911.70
2019-04-01T06:04:15.187Z,94909.98
2019-04-01T06:06:48.842Z,94912.61
2019-04-01T06:09:19.550Z,94917.75
2019-04-01T06:11:50.484Z,94913.17
2019-04-01T06:14:21.964Z,94913.97
2019-04-01T06:16:53.480Z,94917.60
2019-04-01T06:19:24.657Z,94919.95
2019-04-01T06:21:55.760Z,94911.01
2019-04-01T06:24:27.192Z,94915.02
2019-04-01T06:26:58.411Z,94912.95
2019-04-01T06:29:29.513Z,94917.45
2019-04-01T06:32:22.103Z,94911.25
2019-04-01T06:34:53.509Z,94912.65
2019-04-01T06:37:24.652Z,94911.21
2019-04-01T06:39:55.717Z,94911.52
2019-04-01T06:42:26.704Z,94906.62
2019-04-01T06:44:57.598Z,94908.87
2019-04-01T06:47:28.512Z,94913.58
2019-04-01T06:49:59.323Z,94913.25
2019-04-01T06:52:30.375Z,94915.97
2019-04-01T06:55:01.432Z,94916.59
2019-04-01T07:11:57.638Z,94921.17
2019-04-01T07:14:30.376Z,94924.70
2019-04-01T07:17:03.887Z,94917.55
2019-04-01T07:19:36.443Z,94919.42
2019-04-01T07:22:09.343Z,94917.75
2019-04-01T07:24:42.774Z,94918.75
2019-04-01T07:27:15.798Z,94916.72
2019-04-01T07:29:48.593Z,94913.00
2019-04-01T07:32:21.117Z,94910.36
2019-04-01T07:34:53.649Z,94915.78
2019-04-01T07:37:26.165Z,94910.08
2019-04-01T07:39:58.545Z,94910.73
2019-04-01T07:42:31.318Z,94912.96
2019-04-01T07:45:03.930Z,94906.96
2019-04-01T07:47:36.745Z,94910.68
2019-04-01T07:50:12.058Z,94910.81
2019-04-01T07:52:43.072Z,94904.41
2019-04-01T07:55:15.471Z,94906.05
2019-04-01T07:57:48.432Z,94905.06
2019-04-01T08:00:20.951Z,94911.19
2019-04-01T08:02:54.384Z,94901.65
2019-04-01T08:05:27.085Z,94901.65
2019-04-01T08:08:00.126Z,94904.89
2019-04-01T08:10:33.076Z,94900.52
2019-04-01T08:13:05.758Z,94903.56
2019-04-01T08:15:38.283Z,94901.28
2019-04-01T08:18:11.324Z,94904.91
2019-04-01T08:20:45.222Z,94902.31
2019-04-01T08:23:20.789Z,94903.99
2019-04-01T08:25:52.972Z,94899.90
2019-04-01T08:28:26.016Z,94898.53
2019-04-01T08:30:58.503Z,94900.85
2019-04-01T08:33:31.142Z,94896.63
2019-04-01T08:36:03.550Z,94892.63
2019-04-01T08:38:36.191Z,94891.63
2019-04-01T08:41:09.422Z,94885.81
2019-04-01T08:43:40.716Z,94887.80
2019-04-01T08:46:13.615Z,94892.35
2019-04-01T08:48:46.217Z,94884.72
2019-04-01T08:51:19.142Z,94880.55
2019-04-01T08:53:52.031Z,94875.48
2019-04-01T08:56:25.911Z,94870.66
2019-04-01T08:58:58.745Z,94870.31
2019-04-01T09:01:35.433Z,94873.89
2019-04-01T09:04:05.759Z,94867.28
2019-04-01T09:06:38.024Z,94861.86
2019-04-01T09:09:10.495Z,94853.09
2019-04-01T09:11:43.812Z,94855.30
2019-04-01T09:14:16.927Z,94851.36
2019-04-01T09:16:49.504Z,94844.84
2019-04-01T09:19:22.001Z,94839.48
2019-04-01T09:21:54.972Z,94833.86
2019-04-01T09:24:27.520Z,94831.02
2019-04-01T09:26:59.952Z,94824.03
2019-04-01T09:29:32.437Z,94823.59
2019-04-01T09:32:04.976Z,94823.88
2019-04-01T09:34:37.500Z,94815.55
2019-04-01T09:37:10.459Z,94816.78
2019-04-01T09:39:41.890Z,94810.17
2019-04-01T09:42:14.654Z,94808.05
2019-04-01T09:44:47.216Z,94799.88
2019-04-01T09:47:19.787Z,94790.84
2019-04-01T09:49:52.853Z,94791.97
2019-04-01T09:52:24.448Z,94796.30
2019-04-01T09:54:56.994Z,94801.17
2019-04-01T09:57:29.581Z,94780.23
2019-04-01T10:00:02.579Z,94782.17
2019-04-01T10:02:36.824Z,94787.66
2019-04-01T10:05:10.633Z,94784.27
2019-04-01T10:07:43.761Z,94776.49
2019-04-01T10:10:15.202Z,94775.52
2019-04-01T10:12:47.982Z,94791.02
2019-04-01T10:15:21.945Z,94787.26
2019-04-01T10:17:54.424Z,94787.53
2019-04-01T10:20:27.218Z,94790.30
2019-04-01T10:22:59.677Z,94785.25
2019-04-01T10:25:32.570Z,94780.66
2019-04-01T10:28:05.381Z,94782.34
2019-04-01T10:30:37.898Z,94786.77
2019-04-01T10:33:10.875Z,94781.48
2019-04-01T10:35:43.985Z,94786.81
2019-04-01T10:38:16.932Z,94786.09
2019-04-01T10:40:49.731Z,94779.73
2019-04-01T10:43:22.050Z,94771.52
2019-04-01T10:45:54.695Z,94771.72
2019-04-01T10:48:27.214Z,94769.78
2019-04-01T10:50:59.951Z,94770.77
2019-04-01T10:53:32.626Z,94772.54
2019-04-01T10:56:05.214Z,94761.98
2019-04-01T10:58:37.555Z,94759.88
2019-04-01T11:01:10.636Z,94758.94
2019-04-01T11:03:43.554Z,94764.49
2019-04-01T11:06:14.953Z,94761.94
2019-04-01T11:08:47.372Z,94757.32
2019-04-01T11:11:19.876Z,94768.30
2019-04-01T11:13:53.926Z,94758.02
2019-04-01T11:16:27.245Z,94760.69
2019-04-01T11:19:01.266Z,94754.09
2019-04-01T11:21:34.220Z,94751.87
2019-04-01T11:24:07.721Z,94747.80
2019-04-01T11:26:40.795Z,94749.83
2019-04-01T11:29:14.634Z,94748.36
2019-04-01T11:31:47.246Z,94747.45
2019-04-01T11:34:20.007Z,94739.67
2019-04-01T11:36:52.658Z,94739.18
2019-04-01T11:39:24.687Z,94737.69
2019-04-01T11:41:57.242Z,94735.28
2019-04-01T11:44:29.938Z,94724.39
2019-04-01T11:47:02.922Z,94729.66
2019-04-01T11:49:34.146Z,94728.52
2019-04-01T11:52:06.810Z,94726.13
2019-04-01T11:54:38.753Z,94718.73
2019-04-01T11:57:11.572Z,94728.27
2019-04-01T11:59:44.320Z,94715.77
2019-04-01T12:02:17.186Z,94713.45
2019-04-01T12:04:48.454Z,94709.25
2019-04-01T12:07:21.353Z,94711.19
2019-04-01T12:09:52.655Z,94708.20
2019-04-01T12:12:25.550Z,94710.13
2019-04-01T12:14:57.307Z,94703.73
2019-04-01T12:17:29.704Z,94708.84
2019-04-01T12:20:02.667Z,94698.77
2019-04-01T12:22:35.613Z,94701.70
2019-04-01T12:25:09.351Z,94692.00
2019-04-01T12:27:42.443Z,94693.59
2019-04-01T12:30:15.107Z,94694.36
2019-04-01T12:32:47.781Z,94687.13
2019-04-01T12:35:21.523Z,94693.88
2019-04-01T12:37:55.125Z,94692.41
2019-04-01T12:40:30.708Z,94692.77
2019-04-01T12:43:03.491Z,94689.35
2019-04-01T12:45:34.753Z,94679.23
2019-04-01T12:48:07.439Z,94682.72
2019-04-01T12:50:40.040Z,94676.77
2019-04-01T12:53:12.664Z,94673.02
2019-04-01T12:55:45.182Z,94669.11
2019-04-01T12:58:18.101Z,94669.95
2019-04-01T13:13:38.859Z,94660.69
2019-04-01T13:16:10.428Z,94660.52
2019-04-01T13:18:42.332Z,94654.16
2019-04-01T13:21:14.064Z,94657.52
2019-04-01T13:23:46.171Z,94660.63
2019-04-01T13:26:18.111Z,94646.57
2019-04-01T13:28:51.063Z,94667.52
2019-04-01T13:31:23.930Z,94655.38
2019-04-01T13:33:55.989Z,94667.09
2019-04-01T13:36:27.925Z,94659.65
2019-04-01T13:38:59.758Z,94663.68
2019-04-01T13:41:41.769Z,94664.52
2019-04-01T13:44:08.569Z,94658.69
2019-04-01T13:46:38.118Z,94667.25
2019-04-01T13:49:10.103Z,94653.38
2019-04-01T13:51:43.763Z,94662.04
2019-04-01T13:54:15.596Z,94662.83
2019-04-01T13:56:47.260Z,94657.06
2019-04-01T13:59:19.072Z,94658.53
2019-04-01T14:01:50.753Z,94651.53
2019-04-01T14:04:22.505Z,94651.58
2019-04-01T14:06:54.618Z,94654.07
2019-04-01T14:09:26.633Z,94667.77
2019-04-01T14:11:58.372Z,94661.80
2019-04-01T14:14:30.175Z,94659.32
2019-04-01T14:17:02.174Z,94654.80
2019-04-01T14:19:34.037Z,94653.25
2019-04-01T14:22:05.632Z,94663.00
2019-04-01T14:24:37.225Z,94661.58
2019-04-01T14:27:09.324Z,94661.56
2019-04-01T14:29:40.740Z,94671.66
2019-04-01T14:32:12.390Z,94671.17
2019-04-01T14:34:44.184Z,94663.14
2019-04-01T14:37:25.045Z,94661.58
2019-04-01T14:39:49.145Z,94667.57
2019-04-01T14:42:20.834Z,94667.44
2019-04-01T14:44:58.825Z,94664.66
2019-04-01T14:47:30.549Z,94676.26
2019-04-01T14:50:03.403Z,94669.73
2019-04-01T14:52:35.788Z,94675.39
2019-04-01T14:55:08.160Z,94678.95
2019-04-01T14:57:40.101Z,94674.73
2019-04-01T15:00:14.188Z,94687.33
2019-04-01T15:02:46.064Z,94673.42
2019-04-01T15:05:17.985Z,94679.81
2019-04-01T15:07:49.644Z,94678.78
2019-04-01T15:10:21.530Z,94685.59
2019-04-01T15:13:04.418Z,94686.34
2019-04-01T15:15:26.569Z,94691.81
2019-04-01T15:17:58.315Z,94696.00
2019-04-01T15:20:30.393Z,94691.64
2019-04-01T15:23:02.210Z,94694.44
2019-04-01T15:25:33.942Z,94698.69
2019-04-01T15:28:05.783Z,94697.84
2019-04-01T15:30:37.436Z,94703.91
2019-04-01T15:33:09.395Z,94709.46
2019-04-01T15:35:41.575Z,94699.95
2019-04-01T15:38:13.540Z,94701.19
2019-04-01T15:40:46.316Z,94704.23
2019-04-01T15:43:18.779Z,94706.80
2019-04-01T15:45:50.707Z,94714.59
2019-04-01T15:48:22.404Z,94715.25
2019-04-01T15:50:54.348Z,94719.08
2019-04-01T15:53:26.286Z,94722.05
2019-04-01T15:55:59.511Z,94722.37
2019-04-01T15:58:31.367Z,94721.31
2019-04-01T16:01:03.434Z,94719.52
2019-04-01T16:03:35.150Z,94721.05
2019-04-01T16:06:07.772Z,94720.81
2019-04-01T16:08:39.679Z,94724.55
2019-04-01T16:11:11.415Z,94728.42
2019-04-01T16:13:43.485Z,94730.72
2019-04-01T16:16:15.109Z,94728.91
2019-04-01T16:18:46.709Z,94730.07
2019-04-01T16:21:18.382Z,94730.07
2019-04-01T16:23:50.276Z,94732.40
2019-04-01T16:26:21.915Z,94736.89
2019-04-01T16:28:53.674Z,94742.42
2019-04-01T16:31:26.231Z,94742.77
2019-04-01T16:33:58.378Z,94746.59
2019-04-01T16:36:30.128Z,94745.64
2019-04-01T16:39:01.888Z,94747.28
2019-04-01T16:41:35.118Z,94748.70
2019-04-01T16:44:06.897Z,94746.05
2019-04-01T16:46:38.917Z,94750.88
2019-04-01T16:49:10.472Z,94756.64
2019-04-01T16:51:42.374Z,94758.52
2019-04-01T16:54:14.144Z,94762.28
2019-04-01T16:56:45.557Z,94763.09
2019-04-01T16:59:17.295Z,94765.05
2019-04-01T17:01:49.037Z,94765.83
2019-04-01T17:04:20.921Z,94765.05
2019-04-01T17:06:56.031Z,94770.98
2019-04-01T17:09:27.684Z,94777.16
2019-04-01T17:11:59.763Z,94773.73
2019-04-01T17:14:31.452Z,94782.58
2019-04-01T17:17:03.340Z,94775.93
2019-04-01T17:19:34.875Z,94780.00
2019-04-01T17:22:06.473Z,94778.67
2019-04-01T17:24:38.178Z,94778.22
2019-04-01T17:27:13.688Z,94788.11
2019-04-01T17:29:47.051Z,94788.42
2019-04-01T17:32:18.572Z,94792.21
2019-04-01T17:34:50.319Z,94797.55
2019-04-01T17:37:21.927Z,94799.19
2019-04-01T17:39:53.621Z,94795.45
2019-04-01T17:42:25.414Z,94803.22
2019-04-01T17:44:59.375Z,94806.69
2019-04-01T17:47:30.991Z,94809.13
2019-04-01T17:50:02.884Z,94812.84
2019-04-01T17:52:34.882Z,94813.64
2019-04-01T17:55:06.740Z,94814.97
2019-04-01T17:57:38.367Z,94821.91
2019-04-01T18:00:14.593Z,94824.59
2019-04-01T18:02:46.336Z,94830.72
2019-04-01T18:05:18.423Z,94833.94
2019-04-01T18:07:50.203Z,94830.77
2019-04-01T18:10:22.244Z,94839.81
2019-04-01T18:12:53.848Z,94845.69
2019-04-01T18:15:25.483Z,94848.09
2019-04-01T18:17:57.105Z,94850.20
2019-04-01T18:20:28.742Z,94851.82
2019-04-01T18:23:00.457Z,94858.22
2019-04-01T18:25:32.378Z,94860.60
2019-04-01T18:28:04.411Z,94869.68
2019-04-01T18:30:35.865Z,94862.73
2019-04-01T18:33:07.613Z,94867.55
2019-04-01T18:35:39.193Z,94868.62
2019-04-01T18:38:10.938Z,94866.50
2019-04-01T18:40:42.889Z,94872.09
2019-04-01T18:43:14.610Z,94875.30
2019-04-01T18:45:46.380Z,94870.77
2019-04-01T18:48:19.353Z,94878.23
2019-04-01T18:50:51.614Z,94884.89
2019-04-01T18:53:23.636Z,94884.08
2019-04-01T18:55:55.359Z,94887.80
2019-04-01T18:58:26.919Z,94886.41
2019-04-01T19:00:59.865Z,94890.62
2019-04-01T19:03:31.348Z,94899.05
2019-04-01T19:06:03.165Z,94910.21
2019-04-01T19:08:34.822Z,94905.76
2019-04-01T19:11:06.654Z,94904.45
2019-04-01T19:13:38.408Z,94908.17
2019-04-01T19:16:12.106Z,94910.86
2019-04-01T19:18:43.329Z,94918.31
2019-04-01T19:21:14.694Z,94913.23
2019-04-01T19:23:46.375Z,94916.40
2019-04-01T19:26:18.126Z,94916.98
2019-04-01T19:28:49.840Z,94917.45
2019-04-01T19:31:21.391Z,94922.25
2019-04-01T19:33:53.393Z,94925.98
2019-04-01T19:36:24.806Z,94925.63
2019-04-01T19:38:56.325Z,94924.97
2019-04-01T19:41:30.127Z,94924.22
2019-04-01T19:44:01.973Z,94923.39
2019-04-01T19:46:34.003Z,94925.94
2019-04-01T19:49:05.753Z,94930.05
2019-04-01T19:51:38.706Z,94927.48
2019-04-01T19:54:10.395Z,94934.96
2019-04-01T19:56:44.842Z,94936.13
2019-04-01T19:59:16.341Z,94935.61
2019-04-01T20:01:48.253Z,94938.94
2019-04-01T20:04:21.204Z,94942.13
2019-04-01T20:06:52.943Z,94940.97
2019-04-01T20:09:24.633Z,94942.09
2019-04-01T20:11:58.440Z,94944.99
2019-04-01T20:14:34.754Z,94942.13
2019-04-01T20:17:09.970Z,94945.02
2019-04-01T20:19:41.351Z,94947.86
2019-04-01T20:22:13.122Z,94950.25
2019-04-01T20:24:44.631Z,94953.02
2019-04-01T20:27:16.238Z,94957.34
2019-04-01T20:29:47.885Z,94963.02
2019-04-01T20:32:20.113Z,94952.63
2019-04-01T20:34:57.267Z,94958.73
2019-04-01T20:37:24.314Z,94962.75
2019-04-01T20:39:56.115Z,94967.86
2019-04-01T20:42:28.044Z,94972.47
2019-04-01T20:44:59.572Z,94980.63
2019-04-01T20:47:31.385Z,94981.86
2019-04-01T20:50:04.776Z,94983.42
2019-04-01T20:52:35.533Z,94981.38
2019-04-01T20:55:07.942Z,94980.23
2019-04-01T20:57:39.602Z,94983.55
2019-04-01T21:00:11.850Z,94987.29
2019-04-01T21:02:43.730Z,94986.91
2019-04-01T21:05:15.582Z,94982.36
2019-04-01T21:07:47.576Z,94989.07
2019-04-01T21:10:19.413Z,94989.78
2019-04-01T21:12:50.892Z,94991.67
2019-04-01T21:15:22.505Z,94992.53
2019-04-01T21:17:54.128Z,94996.56
2019-04-01T21:20:25.962Z,94991.07
2019-04-01T21:22:57.778Z,95000.58
2019-04-01T21:25:30.198Z,94999.22
2019-04-01T21:28:01.994Z,95000.02
2019-04-01T21:30:33.833Z,95004.43
2019-04-01T21:33:05.534Z,95009.94
2019-04-01T21:35:38.163Z,95008.34
2019-04-01T21:38:10.244Z,95005.86
2019-04-01T21:40:41.976Z,95017.72
2019-04-01T21:43:13.561Z,95018.33
2019-04-01T21:45:45.523Z,95014.66
2019-04-01T21:48:17.217Z,95020.36
2019-04-01T21:50:48.701Z,95013.92
2019-04-01T21:53:20.286Z,95019.80
2019-04-01T21:55:52.037Z,95019.50
2019-04-01T21:58:23.623Z,95011.22
2019-04-01T22:00:57.152Z,95021.12
2019-04-01T22:03:30.208Z,95013.78
2019-04-01T22:06:01.997Z,95017.09
2019-04-01T22:08:33.624Z,95016.34
2019-04-01T22:11:05.594Z,95016.30
2019-04-01T22:13:37.588Z,95016.83
2019-04-01T22:16:09.270Z,95010.98
2019-04-01T22:18:40.596Z,95017.47
2019-04-01T22:21:12.174Z,95023.83
2019-04-01T22:23:43.786Z,95021.41
2019-04-01T22:26:15.242Z,95031.13
2019-04-01T22:28:46.679Z,95035.80
2019-04-01T22:31:18.226Z,95040.16
2019-04-01T22:33:49.976Z,95037.60
2019-04-01T22:36:30.573Z,95044.10
2019-04-01T22:38:54.959Z,95041.73
2019-04-01T22:41:26.471Z,95035.77
2019-04-01T22:43:57.940Z,95040.84
2019-04-01T22:46:29.525Z,95035.33
2019-04-01T22:49:01.080Z,95036.86
2019-04-01T22:51:32.580Z,95035.30
2019-04-01T22:54:04.102Z,95037.39
2019-04-01T22:56:35.714Z,95030.14
2019-04-01T22:59:07.557Z,95026.44
2019-04-01T23:01:39.059Z,95029.05
2019-04-01T23:04:10.654Z,95028.20
2019-04-01T23:06:42.497Z,95035.83
2019-04-01T23:09:14.011Z,95025.67
2019-04-01T23:11:45.451Z,95030.81
2019-04-01T23:14:17.304Z,95023.45
2019-04-01T23:16:49.551Z,95022.73
2019-04-01T23:19:20.946Z,95019.92
2019-04-01T23:21:52.593Z,95026.01
2019-04-01T23:24:24.188Z,95029.59
2019-04-01T23:26:56.106Z,95018.98
2019-04-01T23:29:28.974Z,95032.23
2019-04-01T23:32:00.523Z,95031.37
2019-04-01T23:34:32.112Z,95028.40
2019-04-01T23:37:03.689Z,95037.60
2019-04-01T23:39:35.221Z,95034.09
2019-04-01T23:42:06.685Z,95026.48
2019-04-01T23:44:38.202Z,95031.75
2019-04-01T23:47:09.581Z,95028.38
2019-04-01T23:49:41.240Z,95026.31
2019-04-01T23:52:14.176Z,95023.72
2019-04-01T23:54:45.716Z,95016.81
2019-04-01T23:57:17.370Z,95022.09
2019-04-01T23:59:49.078Z,95023.97
